Time;durP1;ratioP1;P1;durP2;ratioP2;P2;SDS_P1;SDS_P2;PMS_P1;PMS_P2;Temp;Humidity;BMP_temperature;BMP_pressure;BME280_temperature;BME280_humidity;BME280_pressure;Samples;Min_cycle;Max_cycle;Signal;HPM_P1;HPM_P2
2024/03/25 00:01:38;;;;;;;;;;;;;;;2.81;100.00;99634.97;5062586;28;19920;-66
2024/03/25 00:04:04;;;;;;;;;;;;;;;2.86;100.00;99632.75;5057572;28;19925;-67
2024/03/25 00:06:33;;;;;;;;;;;;;;;2.83;100.00;99634.84;5069543;28;20359;-67
2024/03/25 00:08:59;;;;;;;;;;;;;;;2.73;100.00;99635.69;5041704;28;19921;-66
2024/03/25 00:11:24;;;;;;;;;;;;;;;2.69;100.00;99639.56;5059805;28;20357;-67
2024/03/25 00:13:49;;;;;;;;;;;;;;;2.74;100.00;99636.53;5066547;28;19921;-66
2024/03/25 00:16:15;;;;;;;;;;;;;;;2.73;100.00;99645.38;5060980;28;19924;-65
2024/03/25 00:18:40;;;;;;;;;;;;;;;2.68;100.00;99643.19;5068087;28;20479;-67
2024/03/25 00:21:06;;;;;;;;;;;;;;;2.68;100.00;99644.97;5058681;28;20367;-65
2024/03/25 00:23:31;;;;;;;;;;;;;;;2.65;100.00;99640.81;5052141;28;20336;-63
2024/03/25 00:25:57;;;;;;;;;;;;;;;2.64;100.00;99646.22;5061317;28;20392;-66
2024/03/25 00:28:22;;;;;;;;;;;;;;;2.63;100.00;99650.66;5060553;28;20027;-67
2024/03/25 00:30:48;;;;;;;;;;;;;;;2.64;100.00;99647.06;5066438;28;19924;-66
2024/03/25 00:33:13;;;;;;;;;;;;;;;2.65;100.00;99643.47;5058386;28;20054;-66
2024/03/25 00:35:38;;;;;;;;;;;;;;;2.68;100.00;99647.59;5068768;28;20043;-65
2024/03/25 00:38:04;;;;;;;;;;;;;;;2.65;100.00;99648.72;5055907;28;19928;-65
2024/03/25 00:40:30;;;;;;;;;;;;;;;2.65;100.00;99643.47;5067120;28;20393;-66
2024/03/25 00:42:55;;;;;;;;;;;;;;;2.70;100.00;99649.13;5061645;28;19920;-67
2024/03/25 00:45:20;;;;;;;;;;;;;;;2.72;100.00;99649.81;5068756;28;19931;-70
2024/03/25 00:47:46;;;;;;;;;;;;;;;2.69;100.00;99650.09;5064863;28;19920;-66
2024/03/25 00:50:11;;;;;;;;;;;;;;;2.70;100.00;99645.66;5070348;28;19928;-66
2024/03/25 00:52:36;;;;;;;;;;;;;;;2.58;100.00;99655.47;5067556;28;19924;-67
2024/03/25 00:55:02;;;;;;;;;;;;;;;2.48;100.00;99654.66;5060855;28;19924;-65
2024/03/25 00:57:29;;;;;;;;;;;;;;;2.44;100.00;99653.28;5056276;28;19931;-66
2024/03/25 00:59:54;;;;;;;;;;;;;;;2.43;100.00;99654.25;5059651;28;20296;-66
2024/03/25 01:02:20;;;;;;;;;;;;;;;2.43;100.00;99656.88;5066326;28;19967;-64
2024/03/25 01:04:45;;;;;;;;;;;;;;;2.48;100.00;99652.03;5059162;28;19924;-66
2024/03/25 01:07:10;;;;;;;;;;;;;;;2.43;100.00;99657.69;5073020;28;19920;-65
2024/03/25 01:09:36;;;;;;;;;;;;;;;2.24;100.00;99620.88;5063141;28;19986;-64
2024/03/25 01:12:01;;;;;;;;;;;;;;;2.38;100.00;99656.44;5064743;28;19925;-66
2024/03/25 01:14:26;;;;;;;;;;;;;;;2.32;100.00;99652.59;5065754;28;19931;-66
2024/03/25 01:16:52;;;;;;;;;;;;;;;2.31;100.00;99647.44;5060359;28;19920;-65
2024/03/25 01:19:17;;;;;;;;;;;;;;;2.39;100.00;99658.94;5064674;28;20284;-64
2024/03/25 01:21:44;;;;;;;;;;;;;;;2.44;100.00;99655.91;5065062;28;19971;-65
2024/03/25 01:24:11;;;;;;;;;;;;;;;2.47;100.00;99658.25;5068019;28;19925;-65
2024/03/25 01:26:38;;;;;;;;;;;;;;;2.40;100.00;99657.16;5063632;28;19931;-64
2024/03/25 01:29:03;;;;;;;;;;;;;;;2.42;100.00;99652.56;5061931;28;20384;-66
2024/03/25 01:31:28;;;;;;;;;;;;;;;2.44;100.00;99655.91;5067168;28;19924;-65
2024/03/25 01:33:53;;;;;;;;;;;;;;;2.41;100.00;99656.19;5064034;28;19928;-66
2024/03/25 01:36:19;;;;;;;;;;;;;;;2.35;100.00;99656.72;5063864;28;20434;-66
2024/03/25 01:38:44;;;;;;;;;;;;;;;2.23;100.00;99647.28;5066403;28;19968;-66
2024/03/25 01:41:15;;;;;;;;;;;;;;;2.16;100.00;99658.34;5061157;28;19947;-67
2024/03/25 01:43:40;;;;;;;;;;;;;;;2.18;100.00;99656.41;5078635;28;19931;-65
2024/03/25 01:46:05;;;;;;;;;;;;;;;2.30;100.00;99658.91;5059352;28;20345;-65
2024/03/25 01:48:31;;;;;;;;;;;;;;;2.34;100.00;99666.41;5064352;28;19929;-64
2024/03/25 01:50:57;;;;;;;;;;;;;;;2.34;100.00;99653.28;5056832;28;19920;-65
2024/03/25 01:53:24;;;;;;;;;;;;;;;2.38;100.00;99648.56;5063777;28;19925;-66
2024/03/25 01:55:53;;;;;;;;;;;;;;;2.38;100.00;99659.06;5064953;28;19925;-64
2024/03/25 01:58:18;;;;;;;;;;;;;;;2.36;100.00;99658.38;5072868;28;19924;-66
2024/03/25 02:00:44;;;;;;;;;;;;;;;2.40;100.00;99654.50;5066938;28;19931;-66
2024/03/25 02:03:09;;;;;;;;;;;;;;;2.46;100.00;99654.78;5062297;28;19920;-66
2024/03/25 02:05:35;;;;;;;;;;;;;;;2.49;100.00;99659.75;5073802;28;19926;-66
2024/03/25 02:08:01;;;;;;;;;;;;;;;2.45;100.00;99662.81;5064722;28;19931;-68
2024/03/25 02:10:26;;;;;;;;;;;;;;;2.41;100.00;99664.06;5079763;28;19969;-67
2024/03/25 02:12:51;;;;;;;;;;;;;;;2.40;100.00;99662.41;5063928;28;20455;-65
2024/03/25 02:15:17;;;;;;;;;;;;;;;2.41;100.00;99666.69;5062322;28;19924;-68
2024/03/25 02:17:42;;;;;;;;;;;;;;;2.41;100.00;99666.69;5061962;28;20406;-67
2024/03/25 02:20:08;;;;;;;;;;;;;;;2.36;100.00;99667.09;5064377;28;20353;-67
2024/03/25 02:22:35;;;;;;;;;;;;;;;2.33;100.00;99663.91;5060842;28;20411;-66
2024/03/25 02:25:00;;;;;;;;;;;;;;;2.27;100.00;99670.53;5060787;28;20383;-65
2024/03/25 02:27:30;;;;;;;;;;;;;;;2.33;100.00;99671.81;5067867;28;19924;-66
2024/03/25 02:30:01;;;;;;;;;;;;;;;2.32;100.00;99675.41;5061667;28;19924;-64
2024/03/25 02:32:26;;;;;;;;;;;;;;;2.29;100.00;99673.84;5061049;28;19924;-64
2024/03/25 02:34:52;;;;;;;;;;;;;;;2.30;100.00;99679.94;5063723;28;20380;-65
2024/03/25 02:37:18;;;;;;;;;;;;;;;2.29;100.00;99678.28;5062027;28;20431;-67
2024/03/25 02:39:44;;;;;;;;;;;;;;;2.27;100.00;99677.56;5062050;28;19928;-67
2024/03/25 02:42:09;;;;;;;;;;;;;;;2.30;100.00;99679.94;5065167;28;19924;-66
2024/03/25 02:44:34;;;;;;;;;;;;;;;2.34;100.00;99676.09;5063585;28;19924;-65
2024/03/25 02:47:01;;;;;;;;;;;;;;;2.30;100.00;99685.19;5060481;28;19932;-66
2024/03/25 02:49:26;;;;;;;;;;;;;;;2.32;100.00;99678.03;5063778;28;19928;-67
2024/03/25 02:51:51;;;;;;;;;;;;;;;2.36;100.00;99682.03;5063173;28;19937;-66
2024/03/25 02:54:17;;;;;;;;;;;;;;;2.38;100.00;99677.47;5059320;28;20331;-63
2024/03/25 02:56:43;;;;;;;;;;;;;;;2.32;100.00;99680.66;5061016;28;19921;-66
2024/03/25 02:59:08;;;;;;;;;;;;;;;2.34;100.00;99691.84;5071099;28;19986;-65
2024/03/25 03:01:33;;;;;;;;;;;;;;;2.36;100.00;99682.03;5068280;28;19924;-67
2024/03/25 03:03:59;;;;;;;;;;;;;;;2.41;100.00;99687.72;5062657;28;19924;-65
2024/03/25 03:06:24;;;;;;;;;;;;;;;2.42;100.00;99686.75;5059273;28;20402;-66
2024/03/25 03:08:50;;;;;;;;;;;;;;;2.32;100.00;99688.53;5063110;28;19924;-65
2024/03/25 03:11:15;;;;;;;;;;;;;;;2.24;100.00;99683.94;5059232;28;19940;-66
2024/03/25 03:13:40;;;;;;;;;;;;;;;2.25;100.00;99682.97;5058989;28;20401;-67
2024/03/25 03:16:06;;;;;;;;;;;;;;;2.22;100.00;99685.03;5067263;28;19972;-66
2024/03/25 03:18:31;;;;;;;;;;;;;;;2.14;100.00;99683.09;5061558;28;20423;-64
2024/03/25 03:20:56;;;;;;;;;;;;;;;2.15;100.00;99687.38;5063864;28;19931;-64
2024/03/25 03:23:22;;;;;;;;;;;;;;;2.17;100.00;99694.16;5063360;28;19929;-65
2024/03/25 03:25:47;;;;;;;;;;;;;;;2.13;100.00;99692.78;5061457;28;19924;-64
2024/03/25 03:28:14;;;;;;;;;;;;;;;2.03;100.00;99693.72;5059415;28;20015;-69
2024/03/25 03:30:40;;;;;;;;;;;;;;;1.99;100.00;99701.00;5061820;28;19987;-65
2024/03/25 03:33:05;;;;;;;;;;;;;;;2.07;100.00;99701.19;5063965;28;20009;-67
2024/03/25 03:35:32;;;;;;;;;;;;;;;2.09;100.00;99698.44;5056920;28;19921;-66
2024/03/25 03:37:58;;;;;;;;;;;;;;;2.13;100.00;99697.19;5065671;28;19920;-65
2024/03/25 03:40:23;;;;;;;;;;;;;;;2.21;100.00;99701.78;5069972;28;20022;-66
2024/03/25 03:42:48;;;;;;;;;;;;;;;2.29;100.00;99707.16;5064377;28;20296;-64
2024/03/25 03:45:14;;;;;;;;;;;;;;;2.30;100.00;99708.81;5070002;28;20297;-67
2024/03/25 03:47:40;;;;;;;;;;;;;;;2.34;100.00;99711.06;5060860;28;19971;-67
2024/03/25 03:50:06;;;;;;;;;;;;;;;2.34;100.00;99710.25;5060525;28;19931;-68
2024/03/25 03:52:31;;;;;;;;;;;;;;;2.34;100.00;99715.50;5065571;28;19925;-66
2024/03/25 03:54:57;;;;;;;;;;;;;;;2.32;100.00;99720.06;5050431;28;19924;-69
2024/03/25 03:57:22;;;;;;;;;;;;;;;2.33;100.00;99719.09;5073341;28;19927;-67
2024/03/25 03:59:47;;;;;;;;;;;;;;;2.32;100.00;99718.25;5069604;28;19920;-66
2024/03/25 04:02:13;;;;;;;;;;;;;;;2.31;100.00;99727.09;5069814;28;19928;-65
2024/03/25 04:04:38;;;;;;;;;;;;;;;2.32;100.00;99725.31;5071510;28;19920;-65
2024/03/25 04:07:03;;;;;;;;;;;;;;;2.24;100.00;99727.75;5056860;28;19920;-70
2024/03/25 04:09:29;;;;;;;;;;;;;;;2.23;100.00;99726.94;5066751;28;19973;-65
2024/03/25 04:11:55;;;;;;;;;;;;;;;2.24;100.00;99719.88;5063268;28;19927;-67
2024/03/25 04:14:20;;;;;;;;;;;;;;;2.24;100.00;99731.22;5075368;28;19931;-67
2024/03/25 04:16:47;;;;;;;;;;;;;;;2.24;100.00;99735.66;5069745;28;19921;-65
2024/03/25 04:19:13;;;;;;;;;;;;;;;2.27;100.00;99744.09;5044859;28;19935;-66
2024/03/25 04:21:39;;;;;;;;;;;;;;;2.18;100.00;99737.84;5066428;28;20264;-65
2024/03/25 04:24:29;;;;;;;;;;;;;;;2.17;100.00;99746.69;5068121;28;19935;-66
2024/03/25 04:26:55;;;;;;;;;;;;;;;2.29;100.00;99751.84;5070990;28;19924;-70
2024/03/25 04:29:20;;;;;;;;;;;;;;;2.33;100.00;99761.13;5073103;28;19931;-67
2024/03/25 04:31:45;;;;;;;;;;;;;;;2.33;100.00;99763.75;5090304;28;19999;-68
2024/03/25 04:34:11;;;;;;;;;;;;;;;2.32;100.00;99762.09;5072077;28;20398;-69
2024/03/25 04:36:36;;;;;;;;;;;;;;;2.36;100.00;99761.69;5077240;28;19926;-64
2024/03/25 04:39:02;;;;;;;;;;;;;;;2.40;100.00;99764.88;5076366;28;19930;-69
2024/03/25 04:41:27;;;;;;;;;;;;;;;2.44;100.00;99766.25;5070989;28;20031;-69
2024/03/25 04:43:52;;;;;;;;;;;;;;;2.40;100.00;99770.13;5073399;28;19920;-72
2024/03/25 04:46:18;;;;;;;;;;;;;;;2.27;100.00;99770.34;5074747;28;19924;-67
2024/03/25 04:48:43;;;;;;;;;;;;;;;2.24;100.00;99773.25;5070632;28;20435;-69
2024/03/25 04:51:09;;;;;;;;;;;;;;;2.19;100.00;99775.44;5070958;28;19974;-67
2024/03/25 04:53:35;;;;;;;;;;;;;;;2.19;100.00;99778.09;5070947;28;19924;-68
2024/03/25 04:56:00;;;;;;;;;;;;;;;2.24;100.00;99775.88;5074408;28;20249;-68
2024/03/25 04:58:26;;;;;;;;;;;;;;;2.18;100.00;99781.69;5072188;28;20015;-69
2024/03/25 05:00:51;;;;;;;;;;;;;;;2.14;100.00;99775.84;5071033;28;20014;-69
2024/03/25 05:03:16;;;;;;;;;;;;;;;2.18;100.00;99777.25;5073187;28;19920;-71
2024/03/25 05:05:42;;;;;;;;;;;;;;;2.28;100.00;99781.69;5069030;28;20355;-68
2024/03/25 05:08:08;;;;;;;;;;;;;;;2.28;100.00;99782.53;5060363;28;19925;-68
2024/03/25 05:10:34;;;;;;;;;;;;;;;2.32;100.00;99780.50;5071716;28;20627;-67
2024/03/25 05:12:59;;;;;;;;;;;;;;;2.33;100.00;99788.25;5071988;28;20295;-68
2024/03/25 05:15:25;;;;;;;;;;;;;;;2.40;100.00;99789.34;5062088;28;19928;-68
2024/03/25 05:17:50;;;;;;;;;;;;;;;2.46;100.00;99791.44;5066568;28;19925;-68
2024/03/25 05:20:16;;;;;;;;;;;;;;;2.31;100.00;99763.03;5059250;28;19936;-68
2024/03/25 05:22:41;;;;;;;;;;;;;;;2.44;100.00;99803.06;5069894;28;19924;-67
2024/03/25 05:25:07;;;;;;;;;;;;;;;2.47;100.00;99798.34;5071496;28;19977;-66
2024/03/25 05:27:33;;;;;;;;;;;;;;;2.55;100.00;99805.56;5052723;28;20042;-69
2024/03/25 05:29:58;;;;;;;;;;;;;;;2.58;100.00;99807.91;5073070;28;20007;-67
2024/03/25 05:32:23;;;;;;;;;;;;;;;2.63;100.00;99807.53;5070204;28;19924;-69
2024/03/25 05:34:49;;;;;;;;;;;;;;;2.72;100.00;99802.28;5070539;28;19925;-68
2024/03/25 05:37:14;;;;;;;;;;;;;;;2.73;100.00;99814.47;5071638;28;20030;-65
2024/03/25 05:39:39;;;;;;;;;;;;;;;2.75;100.00;99814.34;5062600;28;20747;-66
2024/03/25 05:42:05;;;;;;;;;;;;;;;2.76;100.00;99819.47;5077938;28;20439;-68
2024/03/25 05:44:31;;;;;;;;;;;;;;;2.70;100.00;99820.00;5068323;28;20356;-65
2024/03/25 05:46:56;;;;;;;;;;;;;;;2.69;100.00;99826.22;5071594;28;20011;-69
2024/03/25 05:49:21;;;;;;;;;;;;;;;2.71;100.00;99836.59;5069608;28;20023;-67
2024/03/25 05:51:47;;;;;;;;;;;;;;;2.67;100.00;99835.22;5073323;28;19931;-68
2024/03/25 05:54:13;;;;;;;;;;;;;;;2.68;100.00;99840.34;5070487;28;19950;-69
2024/03/25 05:56:38;;;;;;;;;;;;;;;2.65;100.00;99843.25;5071092;28;19924;-69
2024/03/25 05:59:04;;;;;;;;;;;;;;;2.68;100.00;99852.66;5071165;28;19924;-67
2024/03/25 06:01:29;;;;;;;;;;;;;;;2.65;100.00;99842.41;5064471;28;19925;-69
2024/03/25 06:03:54;;;;;;;;;;;;;;;2.58;100.00;99852.59;5058285;28;20030;-68
2024/03/25 06:06:20;;;;;;;;;;;;;;;2.60;100.00;99855.97;5060330;28;20395;-67
2024/03/25 06:08:45;;;;;;;;;;;;;;;2.56;100.00;99857.16;5055038;28;19928;-70
2024/03/25 06:11:11;;;;;;;;;;;;;;;2.54;100.00;99860.91;5062812;28;20380;-70
2024/03/25 06:13:36;;;;;;;;;;;;;;;2.51;100.00;99855.91;5057930;28;20107;-66
2024/03/25 06:16:01;;;;;;;;;;;;;;;2.52;100.00;99863.66;5065171;28;20322;-68
2024/03/25 06:18:27;;;;;;;;;;;;;;;2.62;100.00;99864.53;5059634;28;19928;-70
2024/03/25 06:20:52;;;;;;;;;;;;;;;2.76;100.00;99868.59;5062406;28;19921;-67
2024/03/25 06:23:23;;;;;;;;;;;;;;;2.89;100.00;99871.81;5063788;28;19944;-69
2024/03/25 06:25:50;;;;;;;;;;;;;;;3.00;100.00;99874.31;5065839;28;19985;-70
2024/03/25 06:28:15;;;;;;;;;;;;;;;2.97;100.00;99879.03;5058587;28;19925;-72
2024/03/25 06:36:08;;;;;;;;;;;;;;;3.06;100.00;99883.47;5062386;28;19972;-72
2024/03/25 06:38:33;;;;;;;;;;;;;;;3.04;100.00;99890.66;5062834;28;19962;-73
2024/03/25 06:40:59;;;;;;;;;;;;;;;3.12;100.00;99888.16;5059323;28;19924;-70
2024/03/25 06:43:24;;;;;;;;;;;;;;;3.25;100.00;99898.44;5057851;28;19951;-69
2024/03/25 06:45:50;;;;;;;;;;;;;;;3.31;100.00;99908.41;5062459;28;19971;-70
2024/03/25 06:48:15;;;;;;;;;;;;;;;3.53;100.00;99908.16;5061175;28;20399;-71
2024/03/25 06:50:40;;;;;;;;;;;;;;;3.68;100.00;99905.94;5057678;28;20309;-68
2024/03/25 06:53:06;;;;;;;;;;;;;;;3.79;100.00;99910.25;5065477;28;19920;-69
2024/03/25 06:55:31;;;;;;;;;;;;;;;3.87;100.00;99913.84;5058218;28;19932;-69
2024/03/25 06:57:56;;;;;;;;;;;;;;;3.83;100.00;99920.34;5070559;28;19924;-68
2024/03/25 07:00:22;;;;;;;;;;;;;;;3.64;100.00;99923.81;5052195;28;19924;-67
2024/03/25 07:02:48;;;;;;;;;;;;;;;3.52;100.00;99927.56;5056477;28;19920;-71
2024/03/25 07:05:13;;;;;;;;;;;;;;;3.45;100.00;99930.88;5060992;28;19927;-69
2024/03/25 07:07:39;;;;;;;;;;;;;;;3.39;100.00;99925.19;5070597;28;19931;-70
2024/03/25 07:10:04;;;;;;;;;;;;;;;3.39;100.00;99930.44;5060190;28;19925;-68
2024/03/25 07:12:30;;;;;;;;;;;;;;;3.41;100.00;99935.56;5076476;28;19920;-68
2024/03/25 07:14:55;;;;;;;;;;;;;;;3.67;100.00;99931.44;5060217;28;19927;-69
2024/03/25 07:17:23;;;;;;;;;;;;;;;3.95;100.00;99929.75;5058994;28;19921;-72
2024/03/25 07:19:48;;;;;;;;;;;;;;;4.06;100.00;99941.97;5071070;28;20019;-68
2024/03/25 07:22:14;;;;;;;;;;;;;;;4.15;100.00;99942.91;5060514;28;19956;-69
2024/03/25 07:24:42;;;;;;;;;;;;;;;4.18;100.00;99945.25;5065181;28;19975;-69
2024/03/25 07:27:09;;;;;;;;;;;;;;;4.21;100.00;99948.44;5060585;28;20330;-70
2024/03/25 07:29:35;;;;;;;;;;;;;;;4.40;100.00;99942.31;5066376;28;19927;-71
2024/03/25 07:32:00;;;;;;;;;;;;;;;4.50;100.00;99948.38;5070232;28;19924;-71
2024/03/25 07:34:26;;;;;;;;;;;;;;;4.46;100.00;99952.28;5061215;28;20418;-67
2024/03/25 07:36:52;;;;;;;;;;;;;;;4.57;100.00;99956.53;5063028;28;19989;-70
2024/03/25 07:39:17;;;;;;;;;;;;;;;4.51;100.00;99952.69;5062990;28;19921;-71
2024/03/25 07:41:42;;;;;;;;;;;;;;;4.47;99.64;99961.84;5062916;28;19920;-72
2024/03/25 07:44:07;;;;;;;;;;;;;;;4.58;99.35;99960.84;5059238;28;19936;-72
2024/03/25 07:46:33;;;;;;;;;;;;;;;4.64;99.65;99974.31;5043713;28;19928;-69
2024/03/25 07:48:58;;;;;;;;;;;;;;;4.61;98.42;99974.56;5061344;28;19928;-71
2024/03/25 07:51:24;;;;;;;;;;;;;;;4.50;96.46;99960.72;5063103;28;19921;-70
2024/03/25 07:53:49;;;;;;;;;;;;;;;4.37;99.17;99966.31;5056543;28;19979;-68
2024/03/25 07:56:17;;;;;;;;;;;;;;;4.43;99.86;99971.03;5060340;28;20006;-70
2024/03/25 07:58:43;;;;;;;;;;;;;;;4.38;98.82;99978.53;5056633;28;20307;-68
2024/03/25 08:01:08;;;;;;;;;;;;;;;4.55;99.49;99974.31;5072112;28;19925;-69
2024/03/25 08:03:33;;;;;;;;;;;;;;;4.65;98.19;99980.41;5066385;28;20286;-69
2024/03/25 08:05:59;;;;;;;;;;;;;;;4.71;97.08;99989.56;5061349;28;20438;-67
2024/03/25 08:08:24;;;;;;;;;;;;;;;4.56;96.12;99984.72;5070141;28;19924;-70
2024/03/25 08:10:50;;;;;;;;;;;;;;;4.47;96.02;99998.75;5061536;28;20307;-70
2024/03/25 08:13:19;;;;;;;;;;;;;;;4.59;98.20;99994.13;5058330;28;20501;-67
2024/03/25 08:15:45;;;;;;;;;;;;;;;4.73;97.36;100006.88;5057831;28;19931;-69
2024/03/25 08:18:10;;;;;;;;;;;;;;;4.73;95.95;100008.69;5052347;28;20016;-71
2024/03/25 08:20:36;;;;;;;;;;;;;;;4.50;95.64;100009.03;5062026;28;20030;-71
2024/03/25 08:23:01;;;;;;;;;;;;;;;4.55;94.24;100016.50;5062494;28;19920;-72
2024/03/25 08:25:26;;;;;;;;;;;;;;;4.52;95.88;100016.78;5068331;28;20468;-73
2024/03/25 08:27:52;;;;;;;;;;;;;;;4.60;96.23;100022.19;5055223;28;20011;-68
2024/03/25 08:30:17;;;;;;;;;;;;;;;4.63;94.51;100017.47;5062227;28;19921;-73
2024/03/25 08:32:42;;;;;;;;;;;;;;;4.54;95.60;100023.59;5056229;28;20066;-70
2024/03/25 08:35:08;;;;;;;;;;;;;;;4.71;95.35;100022.03;5058028;28;19928;-72
2024/03/25 08:37:33;;;;;;;;;;;;;;;4.74;94.20;100036.75;5057276;28;20299;-70
2024/03/25 08:39:59;;;;;;;;;;;;;;;4.69;92.57;100028.44;5059209;28;19921;-70
2024/03/25 08:42:25;;;;;;;;;;;;;;;4.73;95.13;100033.28;5060630;28;19968;-68
2024/03/25 08:44:50;;;;;;;;;;;;;;;4.80;94.70;100037.00;5056164;28;19982;-70
2024/03/25 08:47:16;;;;;;;;;;;;;;;4.87;95.38;100042.50;5059501;28;19921;-70
2024/03/25 08:49:41;;;;;;;;;;;;;;;4.72;92.70;100028.13;5065086;28;19925;-67
2024/03/25 08:52:06;;;;;;;;;;;;;;;4.58;93.84;100037.31;5062809;28;19926;-72
2024/03/25 08:54:31;;;;;;;;;;;;;;;4.60;93.68;100040.63;5065127;28;20338;-70
2024/03/25 08:56:57;;;;;;;;;;;;;;;4.50;94.06;100048.56;5059134;28;20351;-72
2024/03/25 08:59:22;;;;;;;;;;;;;;;4.59;94.18;100055.63;5065045;28;20436;-68
2024/03/25 09:01:48;;;;;;;;;;;;;;;4.47;94.26;100048.84;5061536;28;20367;-69
2024/03/25 09:04:14;;;;;;;;;;;;;;;4.43;96.01;100054.56;5064417;28;19924;-71
2024/03/25 09:06:39;;;;;;;;;;;;;;;4.45;96.99;100061.34;5060576;28;20023;-68
2024/03/25 09:11:48;;;;;;;;;;;;;;;4.50;94.55;100067.03;5069148;28;19924;-71
2024/03/25 09:14:14;;;;;;;;;;;;;;;4.47;95.02;100069.13;5066429;28;19924;-72
2024/03/25 09:16:40;;;;;;;;;;;;;;;4.46;95.36;100065.66;5061838;28;20380;-70
2024/03/25 09:19:05;;;;;;;;;;;;;;;4.38;94.87;100070.81;5064440;28;19974;-71
2024/03/25 09:21:30;;;;;;;;;;;;;;;4.43;96.10;100075.66;5046338;28;20304;-72
2024/03/25 09:23:58;;;;;;;;;;;;;;;4.45;94.39;100069.25;5067901;28;19925;-69
2024/03/25 09:26:24;;;;;;;;;;;;;;;4.50;94.69;100069.66;5062030;28;20038;-70
2024/03/25 09:28:49;;;;;;;;;;;;;;;4.55;93.95;100075.34;5069498;28;19935;-68
2024/03/25 09:31:14;;;;;;;;;;;;;;;4.60;93.96;100075.75;5068647;28;19928;-68
2024/03/25 09:33:40;;;;;;;;;;;;;;;4.69;94.02;100071.47;5067979;28;19921;-69
2024/03/25 09:36:05;;;;;;;;;;;;;;;4.59;92.90;100081.16;5066282;28;19920;-69
2024/03/25 09:38:30;;;;;;;;;;;;;;;4.64;93.93;100086.88;5071941;28;19924;-70
2024/03/25 09:40:57;;;;;;;;;;;;;;;4.70;93.36;100090.75;5044108;28;19925;-69
2024/03/25 09:43:29;;;;;;;;;;;;;;;4.81;93.16;100091.41;5061635;28;20380;-70
2024/03/25 09:45:56;;;;;;;;;;;;;;;4.78;90.60;100101.41;5070046;28;19956;-69
2024/03/25 09:48:21;;;;;;;;;;;;;;;4.83;92.42;100094.75;5065726;28;19925;-70
2024/03/25 09:50:46;;;;;;;;;;;;;;;4.79;90.51;100095.16;5063883;28;19970;-68
2024/03/25 09:53:12;;;;;;;;;;;;;;;4.63;92.09;100093.13;5063262;28;20368;-69
2024/03/25 09:55:37;;;;;;;;;;;;;;;4.69;93.11;100100.47;5070927;28;19920;-66
2024/03/25 09:58:03;;;;;;;;;;;;;;;4.80;93.34;100099.47;5040513;28;20007;-68
2024/03/25 10:00:30;;;;;;;;;;;;;;;5.05;92.86;100103.31;5062084;28;19970;-69
2024/03/25 10:02:55;;;;;;;;;;;;;;;5.24;90.64;100093.53;5068331;28;19920;-69
2024/03/25 10:05:21;;;;;;;;;;;;;;;5.33;90.34;100096.28;5060086;28;19966;-71
2024/03/25 10:07:46;;;;;;;;;;;;;;;5.40;89.13;100098.19;5070180;28;19931;-71
2024/03/25 10:10:11;;;;;;;;;;;;;;;5.37;89.12;100102.91;5065162;28;19920;-68
2024/03/25 10:12:37;;;;;;;;;;;;;;;5.31;89.69;100103.50;5061003;28;20277;-67
2024/03/25 10:15:03;;;;;;;;;;;;;;;5.31;89.99;100103.50;5068618;28;19928;-69
2024/03/25 10:17:32;;;;;;;;;;;;;;;5.44;90.24;100109.28;5069398;28;19951;-69
2024/03/25 10:19:58;;;;;;;;;;;;;;;5.47;87.72;100104.53;5071407;28;19925;-71
2024/03/25 10:22:23;;;;;;;;;;;;;;;5.51;86.85;100110.38;5054730;28;19920;-69
2024/03/25 10:24:49;;;;;;;;;;;;;;;5.44;86.37;100102.19;5066770;28;19929;-70
2024/03/25 10:27:21;;;;;;;;;;;;;;;5.42;86.93;100111.22;5070961;28;20339;-69
2024/03/25 10:29:53;;;;;;;;;;;;;;;5.48;86.72;100102.72;5061481;28;20011;-70
2024/03/25 10:32:18;;;;;;;;;;;;;;;5.60;85.40;100112.13;5066386;28;19924;-70
2024/03/25 10:34:44;;;;;;;;;;;;;;;5.59;86.00;100116.59;5062933;28;20257;-67
2024/03/25 10:37:10;;;;;;;;;;;;;;;5.66;85.62;100108.91;5063846;28;20338;-68
2024/03/25 10:39:39;;;;;;;;;;;;;;;5.54;83.81;100112.72;5055682;28;19942;-69
2024/03/25 10:42:05;;;;;;;;;;;;;;;5.43;84.92;100118.19;5063762;28;19921;-68
2024/03/25 10:44:30;;;;;;;;;;;;;;;5.44;83.64;100125.94;5068565;28;19948;-68
2024/03/25 10:47:01;;;;;;;;;;;;;;;5.52;85.81;100127.88;5064903;28;20368;-65
2024/03/25 10:49:56;;;;;;;;;;;;;;;5.42;83.56;100129.72;5079387;28;19932;-69
2024/03/25 10:52:21;;;;;;;;;;;;;;;5.31;85.10;100132.56;5048444;28;19931;-67
2024/03/25 10:54:47;;;;;;;;;;;;;;;5.46;85.63;100137.19;5062728;28;19920;-66
2024/03/25 10:57:13;;;;;;;;;;;;;;;5.49;84.42;100130.78;5052302;28;19925;-70
2024/03/25 10:59:41;;;;;;;;;;;;;;;5.57;85.44;100138.84;5063949;28;19924;-67
2024/03/25 11:02:10;;;;;;;;;;;;;;;5.64;84.88;100137.28;5057638;28;19924;-70
2024/03/25 11:04:36;;;;;;;;;;;;;;;5.66;83.94;100145.06;5070637;28;19947;-71
2024/03/25 11:07:08;;;;;;;;;;;;;;;5.59;84.38;100147.47;5054984;28;20031;-67
2024/03/25 11:09:33;;;;;;;;;;;;;;;5.29;85.22;100143.25;5063287;28;19924;-68
2024/03/25 11:11:59;;;;;;;;;;;;;;;5.24;85.37;100145.50;5064861;28;19931;-67
2024/03/25 11:14:27;;;;;;;;;;;;;;;5.23;85.54;100149.94;5060524;28;19920;-70
2024/03/25 11:16:53;;;;;;;;;;;;;;;5.34;84.75;100156.84;5067970;28;19935;-67
2024/03/25 11:19:20;;;;;;;;;;;;;;;5.48;84.65;100152.91;5059948;28;20295;-71
2024/03/25 11:21:46;;;;;;;;;;;;;;;5.66;84.03;100153.81;5058032;28;19943;-71
2024/03/25 11:24:11;;;;;;;;;;;;;;;5.78;83.58;100151.81;5061878;28;20383;-68
2024/03/25 11:26:40;;;;;;;;;;;;;;;5.76;81.25;100157.22;5059588;28;19971;-68
2024/03/25 11:29:06;;;;;;;;;;;;;;;5.87;81.68;100166.78;5066715;28;19975;-68
2024/03/25 11:31:33;;;;;;;;;;;;;;;5.95;81.32;100158.16;5062844;28;19956;-69
2024/03/25 11:34:03;;;;;;;;;;;;;;;5.72;81.34;100158.50;5063770;28;19928;-68
2024/03/25 11:36:30;;;;;;;;;;;;;;;5.59;81.48;100163.31;5060371;28;19927;-67
2024/03/25 11:39:04;;;;;;;;;;;;;;;5.66;83.74;100167.03;5061392;28;19978;-69
2024/03/25 11:41:33;;;;;;;;;;;;;;;5.56;82.00;100167.06;5063920;28;20387;-69
2024/03/25 11:43:58;;;;;;;;;;;;;;;5.48;82.50;100174.88;5054787;28;20066;-73
2024/03/25 11:46:26;;;;;;;;;;;;;;;5.46;83.13;100176.81;5060879;28;19955;-71
2024/03/25 11:48:55;;;;;;;;;;;;;;;5.31;81.55;100178.25;5063432;28;20342;-70
2024/03/25 11:51:20;;;;;;;;;;;;;;;5.16;81.67;100180.50;5068157;28;20267;-69
2024/03/25 11:53:46;;;;;;;;;;;;;;;4.97;82.13;100191.94;5057926;28;19926;-70
2024/03/25 11:56:11;;;;;;;;;;;;;;;4.91;82.85;100191.66;5070421;28;19924;-69
2024/03/25 11:58:37;;;;;;;;;;;;;;;4.98;83.55;100196.25;5056237;28;19960;-68
2024/03/25 12:01:03;;;;;;;;;;;;;;;4.98;83.63;100187.50;5056438;28;19933;-69
2024/03/25 12:03:28;;;;;;;;;;;;;;;4.96;83.55;100200.00;5061231;28;19924;-72
2024/03/25 12:05:55;;;;;;;;;;;;;;;4.94;84.37;100188.75;5060180;28;20430;-71
2024/03/25 12:08:22;;;;;;;;;;;;;;;4.98;84.28;100195.41;5058839;28;19925;-67
2024/03/25 12:13:31;;;;;;;;;;;;;;;5.07;84.43;100205.13;5065407;28;19932;-70
2024/03/25 12:15:57;;;;;;;;;;;;;;;5.02;83.11;100198.59;5069353;28;19924;-72
2024/03/25 12:18:22;;;;;;;;;;;;;;;4.96;84.41;100205.28;5053496;28;19936;-69
2024/03/25 12:20:48;;;;;;;;;;;;;;;4.98;84.33;100205.97;5059544;28;19932;-68
2024/03/25 12:23:13;;;;;;;;;;;;;;;4.98;84.73;100211.25;5069398;28;20345;-70
2024/03/25 12:25:40;;;;;;;;;;;;;;;4.92;84.47;100211.81;5067365;28;19932;-71
2024/03/25 12:28:09;;;;;;;;;;;;;;;4.90;84.94;100219.84;5063127;28;19925;-71
2024/03/25 12:30:49;;;;;;;;;;;;;;;4.90;85.34;100221.66;5067496;28;19920;-72
2024/03/25 12:33:16;;;;;;;;;;;;;;;4.85;85.45;100230.00;5068070;28;20005;-69
2024/03/25 12:35:41;;;;;;;;;;;;;;;4.61;85.90;100227.75;5053590;28;19971;-69
2024/03/25 12:38:06;;;;;;;;;;;;;;;4.58;87.09;100233.28;5069710;28;20006;-68
2024/03/25 12:40:32;;;;;;;;;;;;;;;4.52;87.69;100239.13;5064344;28;19924;-68
2024/03/25 12:42:57;;;;;;;;;;;;;;;4.46;87.74;100239.69;5063014;28;20303;-69
2024/03/25 12:45:23;;;;;;;;;;;;;;;4.48;88.15;100244.81;5065211;28;20403;-69
2024/03/25 12:47:48;;;;;;;;;;;;;;;4.38;88.26;100251.88;5063821;28;19925;-69
2024/03/25 12:50:14;;;;;;;;;;;;;;;4.41;89.00;100241.88;5065580;28;19935;-70
2024/03/25 12:52:39;;;;;;;;;;;;;;;4.51;87.75;100244.53;5069341;28;19943;-71